Pajala Airport

ESUP · 北博滕, 瑞典

罗盘
风向 的 风向 150° Pajala Airport 11/29
风: 3 kt, 1 beaufort

3 kt

2 kt
改变
0 ft 1.000 2.000 3.000 4.000 5.000
未检测到零云
METAR ESUP 212150Z AUTO 15003KT 9999 NCD 12/10 Q1016

METAR Pajala Airport - ESUP/PJA

Pajala Airport是,瑞典中的中型机场。 该机场位于纬度67,24466和经度23,07471。 该机场有一条跑道: 11/29. 本场的ICAO机场代码为ESUP。 该机场的IATA代码为PJA。 机场在Sweden FIR中。

该航空气象观测是针对Pajala Airport在2024年7月21日 23:50, 当地时间进行的。

机场观察

风向为150°,速度为3 kt。

可见度为10 km 或者更多。

有未检测到零云。 没有观察到天花板。

温度和风寒是12 °C。 露点为10 °C,相对湿度为88%。 海平面上的气压为1016 hPa (QNH)。

白天

今天,太阳从02:04升起,在23:03降落。 这适用于Pajala Airport,世界夏令时可能有所不同。 当地时间与世界标准时间之间的时差为+2 小时。 夏令时目前正在进行中。

公司介绍

我们没有关于这个机场的公司信息。

体会

到Vliegles.nl去找飞行课程,跳伞和其他飞行体验。 浏览页面,了解Pajala Airport附近所有可用的活动。 你也可以使用搜索功能来寻找你所在地附近的特定飞行课程、跳伞或其他飞行体验。

跑道

Id 标题 侧风 逆风 侧风 %
11/29 118°-298° 2 kt 3 kt 53 %

逆风成分最大的方向会被突出显示,并用于横风计算。 这并不一定意味着这个方向在使用。

乌云

- NCD 未检测到零云

温度 & 天气

温度 12 °C
露点 10 °C
相对湿度 88%
Kp-index 1 (0-9)

白天

日出
02:04 (2:07)
中午
12:34
日落
23:03

小工具

你想在你的网站上有一个关于Pajala Airport的当前航空天气(METAR)的小部件吗?

显示HTML代码
报告变更